Phoenix — JL6690 — position and weather

sailwx.info

Track history (hours):
 
Tides and Currents Weather Stations Pressure Air Temp Water Temp Dewpoint Dewpoint Depression Visibility Wind Speed Wind Dir Waves Ship Positions

Phoenix

Last reported at 2017-Nov-19 12:01 UTC. Time now 2017-Nov-20 13:15 UTC.
Position N 34°34' E 134°49'.

Length 160 m; draft 7 m.

Type: Cargo ship. MMSI: 431501732.

Date/timePositionNaut miles runAvg speedWind from/ knotsBaromVisibWave heightAir tempDewpointWater temp
2017-Nov-19 12:01N 34°34' E 134°49'221.8
2017-Nov-19 11:56N 34°35' E 134°51'920.9
2017-Nov-19 11:30N 34°37' E 135°02'919.2
2017-Nov-19 11:01N 34°37' E 135°14'3 6.8
2017-Nov-19 10:30N 34°41' E 135°14'0 0.3
2017-Nov-19 10:00N 34°41' E 135°13'0 0.0
2017-Nov-19 09:30N 34°41' E 135°13'0 0.0
2017-Nov-19 08:54N 34°41' E 135°13'0 0.0
2017-Nov-19 08:30N 34°41' E 135°13'0 0.0
2017-Nov-19 08:00N 34°41' E 135°13'0 0.4
2017-Nov-19 07:30N 34°41' E 135°14'4 8.1
2017-Nov-19 07:00N 34°37' E 135°16'1019.0
2017-Nov-19 06:30N 34°29' E 135°11'1018.9
2017-Nov-19 06:00N 34°21' E 135°03'816.5
2017-Nov-19 05:30N 34°14' E 134°60'918.7
2017-Nov-19 05:00N 34°05' E 135°01'22315.6
2017-Nov-18 14:42N 34°55' E 139°24'419.9
2017-Nov-18 14:29N 34°58' E 139°28'1020.4
2017-Nov-18 14:00N 35°03' E 139°38'917.2
2017-Nov-18 13:30N 35°10' E 139°45'713.3
2017-Nov-18 13:00N 35°16' E 139°45'611.5
2017-Nov-18 12:31N 35°19' E 139°39'0 0.2
2017-Nov-18 11:57N 35°19' E 139°39'0 0.0
2017-Nov-18 11:30N 35°19' E 139°39'0 0.0
2017-Nov-18 11:00N 35°19' E 139°39'0 0.0
2017-Nov-18 10:27N 35°19' E 139°39'0 0.0
2017-Nov-18 10:00N 35°19' E 139°39'0 0.0
2017-Nov-18 09:21N 35°19' E 139°39'0 0.0
2017-Nov-18 09:00N 35°19' E 139°39'0 0.0
2017-Nov-18 08:30N 35°19' E 139°39'0 0.0
2017-Nov-18 08:00N 35°19' E 139°39'0 0.2
2017-Nov-18 07:30N 35°19' E 139°39'5 9.8
2017-Nov-18 07:00N 35°18' E 139°45'612.9
2017-Nov-18 06:30N 35°11' E 139°46'1019.0
2017-Nov-18 06:00N 35°03' E 139°41'918.3
2017-Nov-18 05:30N 34°56' E 139°34'234 5.6
2017-Nov-16 11:58N 34°34' E 134°50'4 8.8
2017-Nov-16 11:30N 34°37' E 134°54'0 0.1
2017-Nov-16 11:00N 34°37' E 134°54'0 0.0
2017-Nov-16 10:30N 34°37' E 134°54'0 0.0
2017-Nov-16 10:00N 34°37' E 134°54'0 0.0
2017-Nov-16 09:18N 34°37' E 134°54'0 0.1
2017-Nov-16 09:00N 34°37' E 134°54'1 1.7
2017-Nov-16 08:29N 34°37' E 134°55'3 5.2
2017-Nov-16 07:55N 34°38' E 134°58'3 6.1
2017-Nov-16 07:30N 34°37' E 135°01'918.1
2017-Nov-16 07:00N 34°37' E 135°12'4 8.3
2017-Nov-16 06:30N 34°41' E 135°14'1 0.6
2017-Nov-16 05:34N 34°41' E 135°13'0 0.0
2017-Nov-16 05:28N 34°41' E 135°13'0 0.0
2017-Nov-16 04:58N 34°41' E 135°13'0 0.0
2017-Nov-16 04:16N 34°41' E 135°13'0 0.0
2017-Nov-16 04:00N 34°41' E 135°13'0 0.8
2017-Nov-16 03:29N 34°41' E 135°14'510.6
2017-Nov-16 03:01N 34°36' E 135°15'1019.9
2017-Nov-16 02:31N 34°27' E 135°09'1019.5
2017-Nov-16 02:00N 34°19' E 135°01'918.2
2017-Nov-16 01:31N 34°11' E 135°00'1019.7
2017-Nov-16 01:00N 34°00' E 135°01'22016.7
2017-Nov-15 11:47N 34°53' E 139°20'819.6
2017-Nov-15 11:24N 34°57' E 139°28'819.4
2017-Nov-15 11:00N 35°01' E 139°35'918.5
2017-Nov-15 10:30N 35°08' E 139°44'714.7
2017-Nov-15 10:00N 35°15' E 139°46'612.5
2017-Nov-15 09:30N 35°19' E 139°40'1 2.2
2017-Nov-15 08:59N 35°19' E 139°39'0 0.0
2017-Nov-15 08:29N 35°19' E 139°39'0 0.0
2017-Nov-15 07:59N 35°19' E 139°39'0 0.0
2017-Nov-15 07:29N 35°19' E 139°39'0 0.0
2017-Nov-15 06:59N 35°19' E 139°39'0 0.0
2017-Nov-15 06:29N 35°19' E 139°39'0 0.0
2017-Nov-15 05:59N 35°19' E 139°39'0 0.0
2017-Nov-15 05:29N 35°19' E 139°39'0 0.0
2017-Nov-15 04:59N 35°19' E 139°39'0 0.0
2017-Nov-15 04:29N 35°19' E 139°39'0 0.0
2017-Nov-15 03:59N 35°19' E 139°39'0 0.0
2017-Nov-15 03:29N 35°19' E 139°39'0 0.0
2017-Nov-15 02:59N 35°19' E 139°39'0 0.0
2017-Nov-15 02:29N 35°19' E 139°39'0 0.0
2017-Nov-15 02:00N 35°19' E 139°39'0 0.1
2017-Nov-15 01:30N 35°19' E 139°39'4 8.3
2017-Nov-15 01:00N 35°22' E 139°42'3 6.0
2017-Nov-15 00:29N 35°25' E 139°41'0 0.0
2017-Nov-14 23:59N 35°25' E 139°41'0 0.0
2017-Nov-14 23:29N 35°25' E 139°41'0 0.0
2017-Nov-14 22:59N 35°25' E 139°41'0 0.0
2017-Nov-14 22:30N 35°25' E 139°41'0 0.8
2017-Nov-14 22:00N 35°25' E 139°41'510.1
2017-Nov-14 21:30N 35°20' E 139°43'612.4
2017-Nov-14 21:00N 35°15' E 139°47'816.0
2017-Nov-14 20:30N 35°07' E 139°45'1019.6
2017-Nov-14 20:00N 34°60' E 139°37'1020.0
2017-Nov-14 19:30N 34°54' E 139°27'22816.4
2017-Nov-14 05:36N 33°56' E 135°00'220.2
2017-Nov-14 05:30N 33°58' E 135°00'1020.4
2017-Nov-14 05:01N 34°08' E 134°59'1220.6
2017-Nov-14 04:27N 34°19' E 134°59'920.0
2017-Nov-14 04:00N 34°26' E 135°06'1019.5
2017-Nov-14 03:30N 34°34' E 135°14'612.8
2017-Nov-14 03:00N 34°40' E 135°15'2 2.2
2017-Nov-14 02:19N 34°41' E 135°13'0 0.0
2017-Nov-14 01:55N 34°41' E 135°13'0 0.0
2017-Nov-14 01:25N 34°41' E 135°13'0 0.0
2017-Nov-14 00:49N 34°41' E 135°13'0 0.0
2017-Nov-14 00:25N 34°41' E 135°13'0 0.0
2017-Nov-13 23:56N 34°41' E 135°13'0 0.1
2017-Nov-13 23:30N 34°41' E 135°14'3 6.8
2017-Nov-13 23:00N 34°38' E 135°15'918.0
2017-Nov-13 22:30N 34°35' E 135°05'816.6
2017-Nov-13 22:00N 34°35' E 134°55'5 0.1
2017-Nov-12 10:37N 34°34' E 134°49'320.7
2017-Nov-12 10:29N 34°35' E 134°53'918.7
2017-Nov-12 10:00N 34°36' E 135°03'918.6
2017-Nov-12 09:30N 34°37' E 135°15'3 5.5
2017-Nov-12 08:54N 34°41' E 135°13'0 0.0
2017-Nov-12 08:30N 34°41' E 135°13'0 0.0
2017-Nov-12 08:00N 34°41' E 135°13'0 0.0
2017-Nov-12 07:30N 34°41' E 135°13'0 0.0
2017-Nov-12 07:00N 34°41' E 135°13'0 0.0
2017-Nov-12 06:30N 34°41' E 135°13'0 0.0
2017-Nov-12 06:00N 34°41' E 135°13'1 1.4
2017-Nov-12 05:30N 34°41' E 135°14'713.6
2017-Nov-12 05:00N 34°34' E 135°14'1020.2
2017-Nov-12 04:30N 34°26' E 135°06'1120.4
2017-Nov-12 03:59N 34°17' E 134°59'1019.9
2017-Nov-12 03:31N 34°07' E 135°00'1019.5
2017-Nov-12 02:59N 33°57' E 135°02'22817.2
2017-Nov-11 13:46N 34°58' E 139°28'520.3
2017-Nov-11 13:30N 35°01' E 139°33'1020.1
2017-Nov-11 13:01N 35°07' E 139°43'815.3
2017-Nov-11 12:30N 35°14' E 139°46'611.6
2017-Nov-11 12:00N 35°19' E 139°42'3 4.5
2017-Nov-11 11:25N 35°19' E 139°39'0 0.0
2017-Nov-11 10:58N 35°19' E 139°39'0 0.0
2017-Nov-11 10:25N 35°19' E 139°39'0 0.0
2017-Nov-11 09:58N 35°19' E 139°39'0 0.0
2017-Nov-11 09:28N 35°19' E 139°39'0 0.0
2017-Nov-11 08:58N 35°19' E 139°39'0 0.0
2017-Nov-11 08:19N 35°19' E 139°39'0 0.0
2017-Nov-11 07:55N 35°19' E 139°39'0 0.0
2017-Nov-11 07:28N 35°19' E 139°39'0 0.0
2017-Nov-11 06:55N 35°19' E 139°39'0 0.0
2017-Nov-11 06:25N 35°19' E 139°39'0 0.0
2017-Nov-11 05:59N 35°19' E 139°39'0 0.0
2017-Nov-11 05:30N 35°19' E 139°39'4 7.8
2017-Nov-11 05:01N 35°18' E 139°44'612.4
2017-Nov-11 04:30N 35°13' E 139°47'917.6
2017-Nov-11 04:00N 35°04' E 139°42'918.4
2017-Nov-11 03:30N 34°58' E 139°34'917.9
2017-Nov-11 02:59N 34°53' E 139°25'  
Track history (hours):
 
Tides and Currents Weather Stations Pressure Air Temp Water Temp Dewpoint Dewpoint Depression Visibility Wind Speed Wind Dir Waves Ship Positions

Phoenix

Last reported at 2017-Nov-19 12:01 UTC. Time now 2017-Nov-20 13:15 UTC.
Position N 34°34' E 134°49'.

Length 160 m; draft 7 m.

Type: Cargo ship. MMSI: 431501732.

Date/timePositionNaut miles runAvg speedWind from/ knotsBaromVisibWave heightAir tempDewpointWater temp
2017-Nov-19 12:01N 34°34' E 134°49'221.8
2017-Nov-19 11:56N 34°35' E 134°51'920.9
2017-Nov-19 11:30N 34°37' E 135°02'919.2
2017-Nov-19 11:01N 34°37' E 135°14'3 6.8
2017-Nov-19 10:30N 34°41' E 135°14'0 0.3
2017-Nov-19 10:00N 34°41' E 135°13'0 0.0
2017-Nov-19 09:30N 34°41' E 135°13'0 0.0
2017-Nov-19 08:54N 34°41' E 135°13'0 0.0
2017-Nov-19 08:30N 34°41' E 135°13'0 0.0
2017-Nov-19 08:00N 34°41' E 135°13'0 0.4
2017-Nov-19 07:30N 34°41' E 135°14'4 8.1
2017-Nov-19 07:00N 34°37' E 135°16'1019.0
2017-Nov-19 06:30N 34°29' E 135°11'1018.9
2017-Nov-19 06:00N 34°21' E 135°03'816.5
2017-Nov-19 05:30N 34°14' E 134°60'918.7
2017-Nov-19 05:00N 34°05' E 135°01'22315.6
2017-Nov-18 14:42N 34°55' E 139°24'419.9
2017-Nov-18 14:29N 34°58' E 139°28'1020.4
2017-Nov-18 14:00N 35°03' E 139°38'917.2
2017-Nov-18 13:30N 35°10' E 139°45'713.3
2017-Nov-18 13:00N 35°16' E 139°45'611.5
2017-Nov-18 12:31N 35°19' E 139°39'0 0.2
2017-Nov-18 11:57N 35°19' E 139°39'0 0.0
2017-Nov-18 11:30N 35°19' E 139°39'0 0.0
2017-Nov-18 11:00N 35°19' E 139°39'0 0.0
2017-Nov-18 10:27N 35°19' E 139°39'0 0.0
2017-Nov-18 10:00N 35°19' E 139°39'0 0.0
2017-Nov-18 09:21N 35°19' E 139°39'0 0.0
2017-Nov-18 09:00N 35°19' E 139°39'0 0.0
2017-Nov-18 08:30N 35°19' E 139°39'0 0.0
2017-Nov-18 08:00N 35°19' E 139°39'0 0.2
2017-Nov-18 07:30N 35°19' E 139°39'5 9.8
2017-Nov-18 07:00N 35°18' E 139°45'612.9
2017-Nov-18 06:30N 35°11' E 139°46'1019.0
2017-Nov-18 06:00N 35°03' E 139°41'918.3
2017-Nov-18 05:30N 34°56' E 139°34'234 5.6
2017-Nov-16 11:58N 34°34' E 134°50'4 8.8
2017-Nov-16 11:30N 34°37' E 134°54'0 0.1
2017-Nov-16 11:00N 34°37' E 134°54'0 0.0
2017-Nov-16 10:30N 34°37' E 134°54'0 0.0
2017-Nov-16 10:00N 34°37' E 134°54'0 0.0
2017-Nov-16 09:18N 34°37' E 134°54'0 0.1
2017-Nov-16 09:00N 34°37' E 134°54'1 1.7
2017-Nov-16 08:29N 34°37' E 134°55'3 5.2
2017-Nov-16 07:55N 34°38' E 134°58'3 6.1
2017-Nov-16 07:30N 34°37' E 135°01'918.1
2017-Nov-16 07:00N 34°37' E 135°12'4 8.3
2017-Nov-16 06:30N 34°41' E 135°14'1 0.6
2017-Nov-16 05:34N 34°41' E 135°13'0 0.0
2017-Nov-16 05:28N 34°41' E 135°13'0 0.0
2017-Nov-16 04:58N 34°41' E 135°13'0 0.0
2017-Nov-16 04:16N 34°41' E 135°13'0 0.0
2017-Nov-16 04:00N 34°41' E 135°13'0 0.8
2017-Nov-16 03:29N 34°41' E 135°14'510.6
2017-Nov-16 03:01N 34°36' E 135°15'1019.9
2017-Nov-16 02:31N 34°27' E 135°09'1019.5
2017-Nov-16 02:00N 34°19' E 135°01'918.2
2017-Nov-16 01:31N 34°11' E 135°00'1019.7
2017-Nov-16 01:00N 34°00' E 135°01'22016.7
2017-Nov-15 11:47N 34°53' E 139°20'819.6
2017-Nov-15 11:24N 34°57' E 139°28'819.4
2017-Nov-15 11:00N 35°01' E 139°35'918.5
2017-Nov-15 10:30N 35°08' E 139°44'714.7
2017-Nov-15 10:00N 35°15' E 139°46'612.5
2017-Nov-15 09:30N 35°19' E 139°40'1 2.2
2017-Nov-15 08:59N 35°19' E 139°39'0 0.0
2017-Nov-15 08:29N 35°19' E 139°39'0 0.0
2017-Nov-15 07:59N 35°19' E 139°39'0 0.0
2017-Nov-15 07:29N 35°19' E 139°39'0 0.0
2017-Nov-15 06:59N 35°19' E 139°39'0 0.0
2017-Nov-15 06:29N 35°19' E 139°39'0 0.0
2017-Nov-15 05:59N 35°19' E 139°39'0 0.0
2017-Nov-15 05:29N 35°19' E 139°39'0 0.0
2017-Nov-15 04:59N 35°19' E 139°39'0 0.0
2017-Nov-15 04:29N 35°19' E 139°39'0 0.0
2017-Nov-15 03:59N 35°19' E 139°39'0 0.0
2017-Nov-15 03:29N 35°19' E 139°39'0 0.0
2017-Nov-15 02:59N 35°19' E 139°39'0 0.0
2017-Nov-15 02:29N 35°19' E 139°39'0 0.0
2017-Nov-15 02:00N 35°19' E 139°39'0 0.1
2017-Nov-15 01:30N 35°19' E 139°39'4 8.3
2017-Nov-15 01:00N 35°22' E 139°42'3 6.0
2017-Nov-15 00:29N 35°25' E 139°41'0 0.0
2017-Nov-14 23:59N 35°25' E 139°41'0 0.0
2017-Nov-14 23:29N 35°25' E 139°41'0 0.0
2017-Nov-14 22:59N 35°25' E 139°41'0 0.0
2017-Nov-14 22:30N 35°25' E 139°41'0 0.8
2017-Nov-14 22:00N 35°25' E 139°41'510.1
2017-Nov-14 21:30N 35°20' E 139°43'612.4
2017-Nov-14 21:00N 35°15' E 139°47'816.0
2017-Nov-14 20:30N 35°07' E 139°45'1019.6
2017-Nov-14 20:00N 34°60' E 139°37'1020.0
2017-Nov-14 19:30N 34°54' E 139°27'22816.4
2017-Nov-14 05:36N 33°56' E 135°00'220.2
2017-Nov-14 05:30N 33°58' E 135°00'1020.4
2017-Nov-14 05:01N 34°08' E 134°59'1220.6
2017-Nov-14 04:27N 34°19' E 134°59'920.0
2017-Nov-14 04:00N 34°26' E 135°06'1019.5
2017-Nov-14 03:30N 34°34' E 135°14'612.8
2017-Nov-14 03:00N 34°40' E 135°15'2 2.2
2017-Nov-14 02:19N 34°41' E 135°13'0 0.0
2017-Nov-14 01:55N 34°41' E 135°13'0 0.0
2017-Nov-14 01:25N 34°41' E 135°13'0 0.0
2017-Nov-14 00:49N 34°41' E 135°13'0 0.0
2017-Nov-14 00:25N 34°41' E 135°13'0 0.0
2017-Nov-13 23:56N 34°41' E 135°13'0 0.1
2017-Nov-13 23:30N 34°41' E 135°14'3 6.8
2017-Nov-13 23:00N 34°38' E 135°15'918.0
2017-Nov-13 22:30N 34°35' E 135°05'816.6
2017-Nov-13 22:00N 34°35' E 134°55'5 0.1
2017-Nov-12 10:37N 34°34' E 134°49'320.7
2017-Nov-12 10:29N 34°35' E 134°53'918.7
2017-Nov-12 10:00N 34°36' E 135°03'918.6
2017-Nov-12 09:30N 34°37' E 135°15'3 5.5
2017-Nov-12 08:54N 34°41' E 135°13'0 0.0
2017-Nov-12 08:30N 34°41' E 135°13'0 0.0
2017-Nov-12 08:00N 34°41' E 135°13'0 0.0
2017-Nov-12 07:30N 34°41' E 135°13'0 0.0
2017-Nov-12 07:00N 34°41' E 135°13'0 0.0
2017-Nov-12 06:30N 34°41' E 135°13'0 0.0
2017-Nov-12 06:00N 34°41' E 135°13'1 1.4
2017-Nov-12 05:30N 34°41' E 135°14'713.6
2017-Nov-12 05:00N 34°34' E 135°14'1020.2
2017-Nov-12 04:30N 34°26' E 135°06'1120.4
2017-Nov-12 03:59N 34°17' E 134°59'1019.9
2017-Nov-12 03:31N 34°07' E 135°00'1019.5
2017-Nov-12 02:59N 33°57' E 135°02'22817.2
2017-Nov-11 13:46N 34°58' E 139°28'520.3
2017-Nov-11 13:30N 35°01' E 139°33'1020.1
2017-Nov-11 13:01N 35°07' E 139°43'815.3
2017-Nov-11 12:30N 35°14' E 139°46'611.6
2017-Nov-11 12:00N 35°19' E 139°42'3 4.5
2017-Nov-11 11:25N 35°19' E 139°39'0 0.0
2017-Nov-11 10:58N 35°19' E 139°39'0 0.0
2017-Nov-11 10:25N 35°19' E 139°39'0 0.0
2017-Nov-11 09:58N 35°19' E 139°39'0 0.0
2017-Nov-11 09:28N 35°19' E 139°39'0 0.0
2017-Nov-11 08:58N 35°19' E 139°39'0 0.0
2017-Nov-11 08:19N 35°19' E 139°39'0 0.0
2017-Nov-11 07:55N 35°19' E 139°39'0 0.0
2017-Nov-11 07:28N 35°19' E 139°39'0 0.0
2017-Nov-11 06:55N 35°19' E 139°39'0 0.0
2017-Nov-11 06:25N 35°19' E 139°39'0 0.0
2017-Nov-11 05:59N 35°19' E 139°39'0 0.0
2017-Nov-11 05:30N 35°19' E 139°39'4 7.8
2017-Nov-11 05:01N 35°18' E 139°44'612.4
2017-Nov-11 04:30N 35°13' E 139°47'917.6
2017-Nov-11 04:00N 35°04' E 139°42'918.4
2017-Nov-11 03:30N 34°58' E 139°34'917.9
2017-Nov-11 02:59N 34°53' E 139°25'  

Dump ship's entire track history